Time;durP1;ratioP1;P1;durP2;ratioP2;P2;SDS_P1;SDS_P2;PMS_P1;PMS_P2;Temp;Humidity;BMP_temperature;BMP_pressure;BME280_temperature;BME280_humidity;BME280_pressure;Samples;Min_cycle;Max_cycle;Signal;HPM_P1;HPM_P2
2021/11/27 00:01:16;;;;;;;12.30;6.33;;;4.70;99.90;;;;;;5048826;28;20201;-72
2021/11/27 00:03:43;;;;;;;14.17;6.97;;;4.70;99.90;;;;;;5081578;28;20749;-72
2021/11/27 00:06:10;;;;;;;25.30;10.30;;;4.70;99.90;;;;;;5080612;28;20617;-72
2021/11/27 00:08:37;;;;;;;23.27;10.83;;;4.70;99.90;;;;;;5050234;28;20198;-72
2021/11/27 00:11:06;;;;;;;29.37;11.83;;;4.80;99.90;;;;;;5048397;28;20222;-72
2021/11/27 00:13:34;;;;;;;21.43;10.30;;;4.80;99.90;;;;;;5048781;28;20281;-72
2021/11/27 00:16:01;;;;;;;27.27;11.63;;;4.80;99.90;;;;;;5047161;28;20624;-71
2021/11/27 00:18:28;;;;;;;27.77;11.50;;;4.90;99.90;;;;;;5048583;28;20229;-72
2021/11/27 00:20:59;;;;;;;25.33;11.63;;;4.90;99.90;;;;;;5040769;28;20213;-72
2021/11/27 00:23:28;;;;;;;24.80;11.27;;;5.00;99.90;;;;;;5049330;28;20252;-72
2021/11/27 00:25:56;;;;;;;25.13;10.47;;;5.00;99.90;;;;;;5050141;28;20277;-71
2021/11/27 00:28:25;;;;;;;26.53;11.70;;;5.10;99.90;;;;;;5047970;28;20195;-71
2021/11/27 00:30:55;;;;;;;26.43;11.43;;;5.10;99.90;;;;;;5039255;28;20709;-72
2021/11/27 00:33:22;;;;;;;24.80;10.63;;;5.20;99.90;;;;;;5043619;28;20275;-72
2021/11/27 00:35:49;;;;;;;26.10;11.37;;;5.20;99.90;;;;;;5047431;28;20566;-72
2021/11/27 00:38:18;;;;;;;25.63;11.37;;;5.30;99.90;;;;;;5047530;28;20661;-72
2021/11/27 00:40:45;;;;;;;27.30;11.67;;;5.30;99.90;;;;;;5048069;28;20654;-72
2021/11/27 00:43:13;;;;;;;25.43;10.50;;;5.40;99.90;;;;;;5047701;28;20202;-72
2021/11/27 00:45:45;;;;;;;25.70;11.77;;;5.40;99.90;;;;;;5046807;28;20550;-72
2021/11/27 00:48:13;;;;;;;24.13;11.13;;;5.50;99.90;;;;;;5044717;28;20193;-72
2021/11/27 00:50:44;;;;;;;23.20;11.33;;;5.50;99.90;;;;;;5048161;28;20221;-72
2021/11/27 00:53:12;;;;;;;22.00;9.90;;;5.60;99.90;;;;;;5058033;28;20289;-72
2021/11/27 00:55:40;;;;;;;24.80;10.00;;;5.60;99.90;;;;;;5047366;28;20268;-72
2021/11/27 00:58:07;;;;;;;23.17;10.90;;;5.60;99.90;;;;;;5078908;28;20604;-72
2021/11/27 01:00:39;;;;;;;27.93;12.40;;;5.70;99.90;;;;;;5052254;28;20595;-72
2021/11/27 01:03:12;;;;;;;32.47;14.53;;;5.70;99.90;;;;;;5046309;28;20246;-72
2021/11/27 01:05:41;;;;;;;30.37;13.30;;;5.80;99.90;;;;;;5047834;28;20269;-72
2021/11/27 01:08:08;;;;;;;25.60;13.20;;;5.80;99.90;;;;;;5046763;28;20210;-72
2021/11/27 01:10:39;;;;;;;26.23;11.77;;;5.90;99.90;;;;;;5047558;28;20222;-72
2021/11/27 01:13:06;;;;;;;25.13;11.60;;;5.90;99.90;;;;;;5047507;28;20226;-72
2021/11/27 01:15:34;;;;;;;25.13;11.80;;;5.90;99.90;;;;;;5080046;28;20690;-72
2021/11/27 01:18:03;;;;;;;25.97;12.37;;;6.00;99.90;;;;;;5048209;28;20344;-71
2021/11/27 01:20:35;;;;;;;28.53;13.23;;;5.90;99.90;;;;;;5047822;28;20257;-71
2021/11/27 01:23:03;;;;;;;29.57;13.30;;;6.00;99.90;;;;;;5046487;28;20219;-71
2021/11/27 01:25:30;;;;;;;30.53;13.20;;;6.00;99.90;;;;;;5047002;28;20602;-71
2021/11/27 01:27:58;;;;;;;27.60;12.03;;;6.00;99.90;;;;;;5047028;28;20214;-71
2021/11/27 01:30:25;;;;;;;25.43;11.40;;;6.00;99.90;;;;;;5046525;28;20280;-72
2021/11/27 01:32:53;;;;;;;25.07;11.93;;;6.00;99.90;;;;;;5047533;28;20260;-71
2021/11/27 01:35:20;;;;;;;25.27;10.97;;;6.00;99.90;;;;;;5084343;28;20207;-71
2021/11/27 01:37:50;;;;;;;26.00;11.27;;;6.00;99.90;;;;;;5045958;28;20699;-72
2021/11/27 01:40:23;;;;;;;23.90;11.03;;;6.00;99.90;;;;;;5047836;28;20237;-71
2021/11/27 01:42:51;;;;;;;24.53;12.10;;;6.10;99.90;;;;;;5049272;28;20572;-72
2021/11/27 01:45:22;;;;;;;24.03;11.03;;;6.10;99.90;;;;;;5049998;28;20199;-71
2021/11/27 01:47:52;;;;;;;20.27;9.93;;;6.10;99.90;;;;;;5049997;28;20235;-71
2021/11/27 01:50:20;;;;;;;21.30;10.03;;;6.10;99.90;;;;;;5045366;28;20788;-71
2021/11/27 01:52:49;;;;;;;18.93;9.33;;;6.10;99.90;;;;;;5050294;28;20713;-71
2021/11/27 01:55:17;;;;;;;19.33;9.17;;;6.10;99.90;;;;;;5051764;28;20224;-72
2021/11/27 01:57:44;;;;;;;16.70;8.20;;;6.10;99.90;;;;;;5050317;28;20301;-71
2021/11/27 02:00:14;;;;;;;18.63;8.63;;;6.10;99.90;;;;;;5053363;28;20202;-72
2021/11/27 02:02:46;;;;;;;21.87;9.63;;;6.10;99.90;;;;;;5048726;28;20206;-71
2021/11/27 02:05:13;;;;;;;18.20;8.77;;;6.10;99.90;;;;;;5051086;28;20749;-72
2021/11/27 02:07:41;;;;;;;16.43;8.30;;;6.10;99.90;;;;;;5049674;28;20207;-71
2021/11/27 02:10:13;;;;;;;20.67;9.13;;;6.00;99.90;;;;;;5055787;28;20254;-71
2021/11/27 02:12:44;;;;;;;17.50;7.40;;;6.00;99.90;;;;;;5050305;28;20203;-71
2021/11/27 02:15:16;;;;;;;18.23;8.40;;;6.00;99.90;;;;;;5049315;28;20316;-72
2021/11/27 02:17:45;;;;;;;15.30;8.40;;;6.00;99.90;;;;;;5083105;28;20246;-72
2021/11/27 02:20:17;;;;;;;15.83;7.83;;;6.00;99.90;;;;;;5050592;28;20214;-72
2021/11/27 02:22:45;;;;;;;12.90;7.40;;;6.00;99.90;;;;;;5083060;28;20249;-71
2021/11/27 02:25:15;;;;;;;14.43;7.40;;;5.90;99.90;;;;;;5050401;28;20199;-71
2021/11/27 02:27:43;;;;;;;13.30;7.37;;;5.90;99.90;;;;;;5049312;28;20206;-71
2021/11/27 02:30:12;;;;;;;13.50;7.43;;;5.90;99.90;;;;;;5049652;28;20262;-71
2021/11/27 02:32:39;;;;;;;13.30;7.27;;;6.10;99.90;;;;;;5048363;28;20600;-72
2021/11/27 02:35:08;;;;;;;12.27;6.70;;;5.90;99.90;;;;;;5054570;28;20650;-72
2021/11/27 02:37:35;;;;;;;18.03;9.60;;;5.90;99.90;;;;;;5050401;28;20200;-72
2021/11/27 02:40:05;;;;;;;13.63;8.30;;;5.90;99.90;;;;;;5049739;28;20202;-72
2021/11/27 02:42:32;;;;;;;14.87;7.60;;;5.90;99.90;;;;;;5083612;28;20253;-71
2021/11/27 02:44:59;;;;;;;14.10;7.20;;;5.90;99.90;;;;;;5049182;28;20203;-72
2021/11/27 02:47:27;;;;;;;16.37;7.80;;;5.90;99.90;;;;;;5049335;28;20202;-72
2021/11/27 02:49:54;;;;;;;14.43;7.33;;;5.90;99.90;;;;;;5049658;28;20701;-72
2021/11/27 02:52:21;;;;;;;13.23;7.00;;;5.90;99.90;;;;;;5047855;28;20274;-71
2021/11/27 02:54:48;;;;;;;15.07;7.77;;;5.90;99.90;;;;;;5049893;28;20213;-72
2021/11/27 02:57:17;;;;;;;12.13;6.97;;;5.90;99.90;;;;;;5051898;28;20206;-72
2021/11/27 02:59:44;;;;;;;13.90;7.50;;;5.80;99.90;;;;;;5049651;28;20581;-71
2021/11/27 03:02:11;;;;;;;13.57;7.53;;;5.80;99.90;;;;;;5050865;28;20271;-72
2021/11/27 03:04:39;;;;;;;16.63;8.10;;;5.80;99.90;;;;;;5050461;28;20208;-72
2021/11/27 03:07:07;;;;;;;16.10;8.13;;;5.90;99.90;;;;;;5048963;28;20210;-72
2021/11/27 03:09:35;;;;;;;17.23;7.50;;;5.80;99.90;;;;;;5049679;28;20215;-72
2021/11/27 03:12:03;;;;;;;16.97;7.77;;;5.80;99.90;;;;;;5049948;28;20217;-72
2021/11/27 03:14:32;;;;;;;14.63;7.43;;;5.80;99.90;;;;;;5082689;28;20207;-72
2021/11/27 03:17:01;;;;;;;14.67;7.87;;;5.80;99.90;;;;;;5049774;28;20297;-72
2021/11/27 03:19:31;;;;;;;17.73;7.93;;;5.80;99.90;;;;;;5053604;28;20210;-71
2021/11/27 03:21:58;;;;;;;14.73;7.50;;;5.80;99.90;;;;;;5060389;28;20233;-71
2021/11/27 03:24:27;;;;;;;13.60;7.63;;;5.80;99.90;;;;;;5045837;28;20256;-71
2021/11/27 03:26:54;;;;;;;12.77;6.97;;;5.80;99.90;;;;;;5048815;28;20207;-72
2021/11/27 03:29:21;;;;;;;13.90;7.67;;;5.80;99.90;;;;;;5047965;28;20616;-72
2021/11/27 03:31:56;;;;;;;15.57;7.53;;;5.80;99.90;;;;;;5049006;28;20221;-72
2021/11/27 03:34:32;;;;;;;16.37;7.63;;;5.80;99.90;;;;;;5047538;28;21016;-72
2021/11/27 03:36:59;;;;;;;13.27;7.77;;;5.80;99.90;;;;;;5049777;28;20244;-72
2021/11/27 03:39:26;;;;;;;16.67;8.33;;;5.80;99.90;;;;;;5048481;28;20248;-72
2021/11/27 03:41:54;;;;;;;14.00;7.80;;;5.80;99.90;;;;;;5048405;28;20227;-72
2021/11/27 03:44:22;;;;;;;15.93;8.30;;;5.90;99.90;;;;;;5048137;28;20216;-72
2021/11/27 03:46:51;;;;;;;11.63;7.20;;;5.80;99.90;;;;;;5049510;28;20190;-72
2021/11/27 03:49:24;;;;;;;14.43;7.90;;;5.80;99.90;;;;;;5048137;28;20294;-72
2021/11/27 03:51:51;;;;;;;13.30;7.43;;;5.80;99.90;;;;;;5045505;28;20225;-72
2021/11/27 03:54:20;;;;;;;13.40;6.90;;;5.80;99.90;;;;;;5048713;28;20562;-72
2021/11/27 03:56:47;;;;;;;15.17;7.60;;;5.90;99.90;;;;;;5047803;28;20242;-72
2021/11/27 03:59:15;;;;;;;15.43;7.93;;;5.90;99.90;;;;;;5047637;28;20201;-72
2021/11/27 04:01:43;;;;;;;16.23;8.43;;;5.90;99.90;;;;;;5047429;28;20210;-72
2021/11/27 04:04:11;;;;;;;14.37;7.73;;;5.90;99.90;;;;;;5048571;28;20218;-72
2021/11/27 04:06:39;;;;;;;15.13;8.07;;;5.90;99.90;;;;;;5047890;28;20302;-72
2021/11/27 04:09:08;;;;;;;12.83;7.23;;;5.90;99.90;;;;;;5048379;28;20563;-72
2021/11/27 04:11:37;;;;;;;12.60;7.37;;;5.80;99.90;;;;;;5048339;28;20215;-72
2021/11/27 04:14:09;;;;;;;13.43;7.60;;;5.80;99.90;;;;;;5081633;28;20753;-72
2021/11/27 04:16:44;;;;;;;13.80;7.43;;;5.80;99.90;;;;;;5047984;28;20268;-72
2021/11/27 04:19:12;;;;;;;12.13;6.97;;;5.90;99.90;;;;;;5048815;28;20236;-72
2021/11/27 04:21:39;;;;;;;12.27;6.73;;;5.90;99.90;;;;;;5048527;28;20631;-72
2021/11/27 04:24:06;;;;;;;11.70;6.60;;;5.80;99.90;;;;;;5048838;28;20655;-72
2021/11/27 04:26:34;;;;;;;13.90;6.87;;;5.80;99.90;;;;;;5047794;28;20210;-70
2021/11/27 04:29:01;;;;;;;14.47;7.23;;;5.80;99.90;;;;;;5048812;28;20242;-72
2021/11/27 04:31:29;;;;;;;14.47;6.77;;;5.90;99.90;;;;;;5081427;28;20237;-72
2021/11/27 04:33:56;;;;;;;11.90;6.67;;;5.90;99.90;;;;;;5087105;28;20582;-72
2021/11/27 04:36:27;;;;;;;9.77;6.30;;;5.80;99.90;;;;;;5047121;28;20300;-72
2021/11/27 04:38:55;;;;;;;10.87;6.53;;;5.80;99.90;;;;;;5047357;28;20264;-71
2021/11/27 04:41:23;;;;;;;10.83;6.30;;;5.80;99.90;;;;;;5048240;28;20203;-72
2021/11/27 04:43:53;;;;;;;8.87;5.67;;;5.80;99.90;;;;;;5047162;28;20558;-72
2021/11/27 04:46:20;;;;;;;8.00;5.17;;;5.90;99.90;;;;;;5047616;28;20292;-72
2021/11/27 04:48:47;;;;;;;9.33;5.20;;;5.90;99.90;;;;;;5047730;28;20250;-72
2021/11/27 04:51:15;;;;;;;7.27;4.77;;;5.90;99.90;;;;;;5047077;28;20248;-72
2021/11/27 04:53:44;;;;;;;7.47;4.87;;;5.90;99.90;;;;;;5047800;28;20626;-72
2021/11/27 04:56:11;;;;;;;6.47;4.50;;;5.90;99.90;;;;;;5049175;28;20579;-71
2021/11/27 04:58:39;;;;;;;5.83;4.30;;;5.90;99.90;;;;;;5047038;28;20209;-71
2021/11/27 05:01:08;;;;;;;6.50;4.27;;;5.90;99.90;;;;;;5047506;28;20285;-71
2021/11/27 05:03:44;;;;;;;6.83;4.33;;;5.90;99.90;;;;;;5047680;28;20207;-71
2021/11/27 05:06:11;;;;;;;5.27;3.77;;;5.90;99.90;;;;;;5037179;28;20203;-71
2021/11/27 05:08:38;;;;;;;4.23;3.33;;;5.90;99.90;;;;;;5047696;28;20205;-71
2021/11/27 05:11:07;;;;;;;5.93;3.87;;;5.90;99.90;;;;;;5047849;28;20707;-71
2021/11/27 05:13:39;;;;;;;6.17;3.77;;;5.90;99.90;;;;;;5048406;28;20238;-71
2021/11/27 05:16:07;;;;;;;6.47;4.10;;;5.90;99.90;;;;;;5041374;28;20206;-71
2021/11/27 05:18:35;;;;;;;8.20;4.17;;;5.90;99.90;;;;;;5051356;28;20216;-71
2021/11/27 05:21:22;;;;;;;6.70;4.53;;;5.90;99.90;;;;;;5052204;28;20563;-71
2021/11/27 05:23:50;;;;;;;6.87;4.77;;;5.90;99.90;;;;;;5052027;28;20237;-71
2021/11/27 05:26:37;;;;;;;7.60;4.53;;;5.90;99.90;;;;;;5051146;28;20230;-71
2021/11/27 05:29:37;;;;;;;6.23;4.63;;;5.90;99.90;;;;;;5012809;28;20649;-71
2021/11/27 05:32:22;;;;;;;8.57;4.80;;;5.90;99.90;;;;;;5020509;28;20242;-71
2021/11/27 05:34:53;;;;;;;4.87;3.80;;;5.90;99.90;;;;;;5031615;28;20251;-71
2021/11/27 05:37:20;;;;;;;6.00;4.37;;;5.90;99.90;;;;;;5033398;28;20818;-71
2021/11/27 05:39:49;;;;;;;6.60;4.43;;;5.80;99.90;;;;;;5017080;28;20243;-71
2021/11/27 05:42:18;;;;;;;8.80;4.50;;;5.90;99.90;;;;;;5016805;28;20270;-71
2021/11/27 05:44:49;;;;;;;8.77;5.00;;;5.80;99.90;;;;;;4999381;28;20296;-71
2021/11/27 05:47:17;;;;;;;7.43;4.70;;;5.80;99.90;;;;;;5021412;28;20325;-71
2021/11/27 05:49:44;;;;;;;9.67;4.50;;;5.80;99.90;;;;;;4998190;28;20718;-71
2021/11/27 05:52:19;;;;;;;5.70;3.70;;;5.90;99.90;;;;;;5010282;28;20228;-71
2021/11/27 05:54:47;;;;;;;8.43;4.30;;;5.80;99.90;;;;;;5011000;28;21433;-71
2021/11/27 05:57:14;;;;;;;4.67;3.43;;;5.90;99.90;;;;;;4999186;28;20227;-71
2021/11/27 05:59:43;;;;;;;6.87;4.17;;;5.90;99.90;;;;;;5014721;28;20639;-71
2021/11/27 06:02:10;;;;;;;6.37;3.83;;;5.90;99.90;;;;;;5016782;28;20225;-71
2021/11/27 06:04:37;;;;;;;5.20;3.90;;;5.90;99.90;;;;;;5022844;28;20200;-71
2021/11/27 06:07:04;;;;;;;5.77;3.93;;;5.90;99.90;;;;;;5049951;28;20222;-72
2021/11/27 06:09:31;;;;;;;5.17;3.60;;;5.90;99.90;;;;;;5051645;28;20461;-71
2021/11/27 06:11:58;;;;;;;6.37;3.63;;;5.90;99.90;;;;;;5050830;28;20220;-71
2021/11/27 06:14:26;;;;;;;7.67;4.03;;;5.90;99.90;;;;;;5050067;28;20259;-72
2021/11/27 06:16:55;;;;;;;4.20;3.27;;;5.90;99.90;;;;;;5050472;28;20214;-72
2021/11/27 06:19:22;;;;;;;4.00;2.90;;;5.90;99.90;;;;;;5050277;28;20295;-71
2021/11/27 06:21:49;;;;;;;4.77;3.87;;;5.90;99.90;;;;;;5050931;28;20216;-71
2021/11/27 06:24:16;;;;;;;7.93;3.43;;;5.90;99.90;;;;;;5050001;28;20211;-71
2021/11/27 06:26:43;;;;;;;5.87;3.40;;;5.90;99.90;;;;;;5050423;28;20547;-71
2021/11/27 06:29:10;;;;;;;3.73;2.97;;;5.90;99.90;;;;;;5050789;28;20319;-72
2021/11/27 06:31:37;;;;;;;6.30;4.23;;;5.90;99.90;;;;;;5049892;28;20785;-72
2021/11/27 06:34:05;;;;;;;5.90;3.27;;;5.80;99.90;;;;;;5047619;28;20190;-71
2021/11/27 06:36:33;;;;;;;6.57;4.23;;;5.80;99.90;;;;;;5049640;28;20227;-72
2021/11/27 06:39:00;;;;;;;7.50;3.70;;;5.80;99.90;;;;;;5049755;28;20302;-71
2021/11/27 06:41:27;;;;;;;6.23;3.53;;;5.80;99.90;;;;;;5052435;28;20300;-71
2021/11/27 06:44:13;;;;;;;5.73;3.10;;;5.80;99.90;;;;;;5050712;28;20223;-72
2021/11/27 06:46:41;;;;;;;4.33;3.20;;;5.80;99.90;;;;;;5051516;28;20194;-71
2021/11/27 06:49:10;;;;;;;3.37;2.60;;;5.70;99.90;;;;;;5050820;28;20251;-71
2021/11/27 06:51:37;;;;;;;4.20;2.87;;;5.80;99.90;;;;;;5048713;28;20242;-71
2021/11/27 06:54:04;;;;;;;3.47;2.60;;;5.70;99.90;;;;;;5046435;28;20198;-71
2021/11/27 06:56:31;;;;;;;6.17;3.50;;;5.70;99.90;;;;;;5051043;28;20285;-71
2021/11/27 06:58:58;;;;;;;3.03;2.53;;;5.70;99.90;;;;;;5050040;28;20209;-71
2021/11/27 07:01:34;;;;;;;6.73;3.87;;;5.70;99.90;;;;;;5053858;28;20630;-71
2021/11/27 07:04:22;;;;;;;8.10;4.80;;;5.70;99.90;;;;;;5050283;28;20213;-71
2021/11/27 07:07:07;;;;;;;8.07;5.20;;;5.60;99.90;;;;;;5050526;28;20249;-71
2021/11/27 07:10:00;;;;;;;9.10;5.00;;;5.60;99.90;;;;;;5048696;28;20207;-71
2021/11/27 07:12:37;;;;;;;11.80;5.97;;;5.50;99.90;;;;;;5049276;28;20223;-71
2021/11/27 07:15:05;;;;;;;9.77;5.37;;;5.50;99.90;;;;;;5049082;28;20206;-71
2021/11/27 07:17:33;;;;;;;9.67;5.33;;;5.50;99.90;;;;;;5049123;28;20194;-71
2021/11/27 07:20:04;;;;;;;10.27;4.73;;;5.50;99.90;;;;;;5050264;28;20723;-71
2021/11/27 07:22:31;;;;;;;7.70;4.60;;;5.60;99.90;;;;;;5082081;28;20238;-71
2021/11/27 07:24:58;;;;;;;5.50;3.67;;;5.60;99.90;;;;;;5052344;28;20253;-71
2021/11/27 07:27:35;;;;;;;5.47;3.60;;;5.60;99.90;;;;;;5049260;28;20238;-71
2021/11/27 07:30:03;;;;;;;4.80;3.40;;;5.60;99.90;;;;;;5047907;28;20320;-71
2021/11/27 07:32:31;;;;;;;4.60;3.03;;;5.70;99.90;;;;;;5082319;28;20228;-72
2021/11/27 07:34:58;;;;;;;3.93;2.87;;;5.70;99.90;;;;;;5051074;28;20206;-71
2021/11/27 07:37:26;;;;;;;5.20;2.70;;;5.70;99.90;;;;;;5048856;28;20211;-71
2021/11/27 07:39:54;;;;;;;4.27;2.50;;;5.70;99.90;;;;;;5043325;28;20198;-71
2021/11/27 07:42:22;;;;;;;2.30;2.07;;;5.70;99.90;;;;;;5049238;28;20241;-72
2021/11/27 07:45:09;;;;;;;4.20;2.30;;;5.80;99.90;;;;;;5049564;28;20205;-72
2021/11/27 07:47:55;;;;;;;4.13;2.60;;;5.80;99.90;;;;;;5050377;28;20207;-71
2021/11/27 07:50:41;;;;;;;3.47;2.20;;;5.80;99.90;;;;;;5049688;28;20209;-72
2021/11/27 07:53:32;;;;;;;3.20;2.53;;;5.80;99.90;;;;;;5048659;28;20217;-72
2021/11/27 07:56:00;;;;;;;3.50;2.57;;;5.80;99.90;;;;;;5049734;28;20256;-72
2021/11/27 07:58:27;;;;;;;2.97;2.60;;;5.90;99.90;;;;;;5050543;28;20228;-72
2021/11/27 08:00:54;;;;;;;3.73;2.23;;;5.90;99.90;;;;;;5046911;28;20278;-72
2021/11/27 08:03:21;;;;;;;2.87;2.30;;;5.90;99.90;;;;;;5047990;28;20210;-71
2021/11/27 08:05:48;;;;;;;3.17;2.27;;;5.90;99.90;;;;;;5048631;28;20265;-72
2021/11/27 08:08:16;;;;;;;2.30;2.00;;;6.00;99.90;;;;;;5047683;28;20207;-72
2021/11/27 08:10:44;;;;;;;2.70;2.20;;;6.00;99.90;;;;;;5038998;28;20195;-72
2021/11/27 08:13:12;;;;;;;3.47;2.10;;;6.10;99.90;;;;;;5049033;28;20665;-72
2021/11/27 08:15:39;;;;;;;2.33;1.93;;;6.00;99.90;;;;;;5047751;28;20299;-72
2021/11/27 08:18:06;;;;;;;4.20;2.50;;;6.10;99.90;;;;;;5048138;28;20720;-72
2021/11/27 08:20:34;;;;;;;2.40;1.90;;;6.00;99.90;;;;;;5048334;28;20234;-72
2021/11/27 08:23:01;;;;;;;2.20;2.00;;;6.00;99.90;;;;;;5047001;28;20552;-72
2021/11/27 08:25:29;;;;;;;2.40;2.20;;;6.10;99.90;;;;;;5048433;28;20209;-72
2021/11/27 08:27:57;;;;;;;4.60;2.53;;;6.10;99.90;;;;;;5048466;28;20226;-72
2021/11/27 09:05:10;;;;;;;12.33;6.33;;;5.10;99.90;;;;;;5062830;28;20540;-71
2021/11/27 09:07:37;;;;;;;8.93;5.60;;;6.20;99.90;;;;;;5061768;27;20719;-71
2021/11/27 09:10:06;;;;;;;8.83;5.67;;;6.30;99.90;;;;;;5060525;28;20200;-71
2021/11/27 09:12:34;;;;;;;9.13;5.40;;;6.40;99.90;;;;;;5053686;28;20235;-71
2021/11/27 09:15:02;;;;;;;8.03;5.03;;;6.50;99.90;;;;;;5056833;28;20237;-68
2021/11/27 09:17:29;;;;;;;10.37;6.23;;;6.50;99.90;;;;;;5044116;28;20215;-68
2021/11/27 09:19:56;;;;;;;9.03;5.37;;;6.60;99.90;;;;;;5043268;28;20193;-71
2021/11/27 09:22:24;;;;;;;7.73;5.10;;;6.60;99.90;;;;;;5062301;28;20493;-71
2021/11/27 09:24:51;;;;;;;7.53;4.90;;;6.70;99.90;;;;;;5060202;28;20241;-71
2021/11/27 09:27:18;;;;;;;5.83;3.80;;;6.70;99.90;;;;;;5062675;28;20576;-71
2021/11/27 09:29:45;;;;;;;7.43;4.40;;;6.70;99.90;;;;;;5061200;28;20283;-71
2021/11/27 09:32:14;;;;;;;8.67;5.20;;;6.70;99.90;;;;;;5062265;28;20197;-71
2021/11/27 09:34:43;;;;;;;5.87;4.50;;;6.70;99.90;;;;;;5060196;28;20249;-72
2021/11/27 09:37:13;;;;;;;6.43;4.57;;;6.70;99.90;;;;;;5062344;28;20206;-71
2021/11/27 09:39:43;;;;;;;7.10;4.50;;;6.80;99.90;;;;;;5059815;28;20197;-71
2021/11/27 09:42:13;;;;;;;8.20;4.90;;;6.80;99.90;;;;;;5060798;28;20193;-71
2021/11/27 09:44:44;;;;;;;7.03;4.93;;;6.80;99.90;;;;;;5060787;28;20288;-71
2021/11/27 09:47:11;;;;;;;9.43;5.07;;;6.80;99.90;;;;;;5062841;28;20291;-71
2021/11/27 09:49:39;;;;;;;6.30;4.10;;;6.80;99.90;;;;;;5061217;28;20687;-71
2021/11/27 09:52:07;;;;;;;7.97;5.17;;;6.80;99.90;;;;;;5060602;28;20199;-71
2021/11/27 09:54:34;;;;;;;6.43;4.60;;;6.80;99.90;;;;;;5059166;28;20210;-70
2021/11/27 09:57:06;;;;;;;5.43;4.20;;;6.80;99.90;;;;;;5062206;28;20199;-71
2021/11/27 09:59:33;;;;;;;8.30;4.77;;;6.80;99.90;;;;;;5060523;27;20189;-71
2021/11/27 10:02:02;;;;;;;7.30;4.17;;;6.90;99.90;;;;;;5059247;28;20221;-71
2021/11/27 10:04:31;;;;;;;7.17;4.77;;;6.90;99.90;;;;;;5055848;28;20239;-71
2021/11/27 10:07:00;;;;;;;6.00;4.10;;;6.90;99.90;;;;;;5113652;27;20228;-71
2021/11/27 10:09:27;;;;;;;6.60;4.37;;;7.00;99.90;;;;;;5029472;28;20732;-71
2021/11/27 10:11:55;;;;;;;6.73;4.50;;;7.00;99.90;;;;;;5047277;28;20214;-71
2021/11/27 10:14:24;;;;;;;5.07;3.87;;;7.10;99.90;;;;;;5132639;27;20390;-71
2021/11/27 12:05:14;;;;;;;4.97;3.33;;;7.30;99.90;;;;;;5027034;27;20222;-71
2021/11/27 12:07:51;;;;;;;3.80;3.13;;;7.20;99.90;;;;;;5028401;28;20202;-71
2021/11/27 12:10:19;;;;;;;3.60;3.10;;;7.20;99.90;;;;;;5026373;28;20202;-71
2021/11/27 12:13:07;;;;;;;3.07;2.73;;;7.10;99.90;;;;;;5015920;28;20203;-71
2021/11/27 12:15:35;;;;;;;4.53;3.40;;;7.10;99.90;;;;;;5026860;28;20206;-71
2021/11/27 12:18:09;;;;;;;4.20;3.50;;;7.10;99.90;;;;;;5026774;27;20222;-71
2021/11/27 12:20:47;;;;;;;5.20;3.73;;;7.10;99.90;;;;;;5019238;28;20590;-71
2021/11/27 12:23:36;;;;;;;4.17;3.40;;;7.10;99.90;;;;;;5028128;28;20193;-71
2021/11/27 12:26:25;;;;;;;4.97;3.90;;;7.10;99.90;;;;;;5024533;28;20544;-71
2021/11/27 12:29:12;;;;;;;5.57;3.80;;;7.10;99.90;;;;;;5025705;28;20670;-71
2021/11/27 12:31:45;;;;;;;6.27;3.97;;;7.00;99.90;;;;;;5027024;28;20217;-71
2021/11/27 12:34:30;;;;;;;7.13;4.17;;;7.00;99.90;;;;;;5025715;28;20237;-71
2021/11/27 12:36:59;;;;;;;6.07;4.23;;;7.00;99.90;;;;;;5027651;27;20670;-71
2021/11/27 12:39:37;;;;;;;5.40;3.57;;;7.00;99.90;;;;;;5027300;27;20286;-71
2021/11/27 12:42:32;;;;;;;7.50;4.50;;;7.00;99.90;;;;;;5025567;28;20631;-71
2021/11/27 12:45:00;;;;;;;5.97;3.83;;;7.00;99.90;;;;;;5026690;28;20195;-71
2021/11/27 12:47:35;;;;;;;6.90;4.27;;;7.00;99.90;;;;;;5011828;28;20662;-72
2021/11/27 12:50:09;;;;;;;7.43;4.87;;;7.10;99.90;;;;;;5018198;28;20225;-70
2021/11/27 12:52:40;;;;;;;6.20;4.23;;;7.00;99.90;;;;;;5025540;28;20213;-69
2021/11/27 12:55:33;;;;;;;5.70;4.30;;;7.10;99.90;;;;;;5023974;28;20263;-68
2021/11/27 12:58:01;;;;;;;6.90;4.10;;;7.10;99.90;;;;;;5028311;28;20281;-69
2021/11/27 13:00:29;;;;;;;7.37;4.63;;;7.10;99.90;;;;;;5026193;28;20794;-68
2021/11/27 13:02:58;;;;;;;7.00;4.83;;;7.10;99.90;;;;;;5022963;28;20252;-70
2021/11/27 13:05:29;;;;;;;6.47;4.70;;;7.10;99.90;;;;;;5026491;28;20194;-71
2021/11/27 13:07:59;;;;;;;9.17;6.30;;;7.10;99.90;;;;;;5027484;28;20534;-71
2021/11/27 13:10:31;;;;;;;9.87;5.93;;;7.10;99.90;;;;;;5024926;28;20274;-72
2021/11/27 13:13:01;;;;;;;9.63;5.83;;;7.10;99.90;;;;;;5026068;28;20626;-71
2021/11/27 13:15:28;;;;;;;6.73;4.97;;;7.20;99.90;;;;;;5025952;28;20298;-74
2021/11/27 13:18:10;;;;;;;7.70;4.63;;;7.20;99.90;;;;;;5028009;28;20198;-76
2021/11/27 13:20:49;;;;;;;7.27;5.00;;;7.20;99.90;;;;;;5024049;28;20197;-70
2021/11/27 13:23:21;;;;;;;7.70;4.97;;;7.20;99.90;;;;;;5016728;28;20231;-71
2021/11/27 13:25:50;;;;;;;7.77;5.07;;;7.20;99.90;;;;;;5020642;28;20251;-71
2021/11/27 13:28:27;;;;;;;7.10;5.23;;;7.30;99.90;;;;;;5022801;28;20250;-71
2021/11/27 13:30:55;;;;;;;9.53;5.93;;;7.30;99.90;;;;;;5025815;28;20287;-72
2021/11/27 13:33:23;;;;;;;7.80;5.17;;;7.30;99.90;;;;;;5007682;28;20268;-71
2021/11/27 13:35:50;;;;;;;6.90;4.80;;;7.20;99.90;;;;;;5013990;28;20635;-71
2021/11/27 13:38:30;;;;;;;8.30;5.17;;;7.20;99.90;;;;;;5011466;28;20671;-72
2021/11/27 13:40:59;;;;;;;7.53;4.83;;;7.20;99.90;;;;;;5024830;27;20708;-72
2021/11/27 13:43:26;;;;;;;8.67;5.80;;;7.20;99.90;;;;;;5029794;28;20297;-72
2021/11/27 13:45:53;;;;;;;7.07;5.27;;;7.20;99.90;;;;;;5030401;27;20632;-72
2021/11/27 13:48:20;;;;;;;9.43;5.73;;;7.20;99.90;;;;;;5018983;27;20588;-71
2021/11/27 13:50:49;;;;;;;8.47;5.43;;;7.20;99.90;;;;;;5024415;27;20406;-72
2021/11/27 13:53:16;;;;;;;7.00;4.87;;;7.20;99.90;;;;;;5009939;27;20206;-71
2021/11/27 13:55:48;;;;;;;8.57;5.40;;;7.10;99.90;;;;;;5018219;27;20274;-71
2021/11/27 13:58:18;;;;;;;8.40;4.97;;;7.10;99.90;;;;;;5022007;27;20204;-71
2021/11/27 14:00:46;;;;;;;7.63;5.43;;;7.10;99.90;;;;;;5028064;27;20239;-74
2021/11/27 14:03:16;;;;;;;8.43;5.13;;;7.10;99.90;;;;;;5023190;28;20322;-74
2021/11/27 14:05:49;;;;;;;6.60;5.13;;;7.10;99.90;;;;;;5027765;27;20600;-76
2021/11/27 14:08:17;;;;;;;5.90;4.73;;;7.10;99.90;;;;;;5019973;28;20376;-73
2021/11/27 14:10:59;;;;;;;7.43;5.33;;;7.10;99.90;;;;;;5028515;27;20279;-74
2021/11/27 14:13:26;;;;;;;6.37;4.63;;;7.00;99.90;;;;;;5011880;28;20346;-74
2021/11/27 14:15:53;;;;;;;7.67;4.83;;;7.00;99.90;;;;;;5028325;27;20227;-73
2021/11/27 14:18:26;;;;;;;8.13;4.83;;;7.00;99.90;;;;;;5024472;27;20255;-74
2021/11/27 14:20:55;;;;;;;7.10;4.60;;;7.00;99.90;;;;;;5015603;27;20205;-72
2021/11/27 14:23:24;;;;;;;6.13;4.40;;;7.00;99.90;;;;;;5052810;27;20535;-72
2021/11/27 14:26:05;;;;;;;7.47;5.17;;;7.00;99.90;;;;;;5017951;28;20252;-74
2021/11/27 14:28:32;;;;;;;6.37;4.97;;;6.90;99.90;;;;;;5016260;28;20259;-75
2021/11/27 14:31:11;;;;;;;7.20;4.93;;;6.90;99.90;;;;;;5029532;27;20204;-75
2021/11/27 14:33:39;;;;;;;8.40;4.97;;;6.90;99.90;;;;;;5058953;28;20300;-79
2021/11/27 14:36:09;;;;;;;6.13;4.40;;;6.90;99.90;;;;;;5020418;28;20244;-73
2021/11/27 14:38:55;;;;;;;6.73;4.67;;;6.90;99.90;;;;;;5039836;28;20213;-74
2021/11/27 14:41:27;;;;;;;7.50;4.43;;;6.90;99.90;;;;;;5022346;28;20342;-75
2021/11/27 14:44:03;;;;;;;8.30;4.80;;;6.90;99.90;;;;;;5024213;28;20669;-75
2021/11/27 14:46:46;;;;;;;7.90;4.90;;;6.90;99.90;;;;;;5015647;28;20525;-73
2021/11/27 14:49:29;;;;;;;8.40;4.80;;;6.90;99.90;;;;;;5013441;28;20663;-74
2021/11/27 14:52:02;;;;;;;7.23;4.33;;;6.90;99.90;;;;;;5023433;28;20202;-74
2021/11/27 14:54:32;;;;;;;8.33;4.97;;;6.80;99.90;;;;;;5020305;28;20215;-73
2021/11/27 14:57:05;;;;;;;7.93;4.70;;;6.90;99.90;;;;;;5022459;28;20555;-73
2021/11/27 14:59:32;;;;;;;7.83;4.80;;;6.90;99.90;;;;;;5023690;28;20250;-75
2021/11/27 15:01:59;;;;;;;7.93;4.90;;;6.80;99.90;;;;;;5016501;28;20322;-73
2021/11/27 15:04:26;;;;;;;9.00;5.53;;;6.80;99.90;;;;;;5022535;28;20238;-71
2021/11/27 15:06:54;;;;;;;7.50;5.20;;;6.80;99.90;;;;;;5042638;28;20255;-69
2021/11/27 15:09:21;;;;;;;9.83;5.57;;;6.80;99.90;;;;;;5038026;28;20201;-69
2021/11/27 15:11:48;;;;;;;7.47;4.60;;;6.70;99.90;;;;;;5018822;27;20210;-70
2021/11/27 15:14:16;;;;;;;10.13;5.80;;;6.70;99.90;;;;;;5019889;28;20298;-69
2021/11/27 15:16:45;;;;;;;7.13;5.00;;;6.70;99.90;;;;;;5022822;28;20242;-70
2021/11/27 15:19:12;;;;;;;7.67;5.00;;;6.80;99.90;;;;;;5022761;28;20197;-70
2021/11/27 15:21:39;;;;;;;8.40;5.57;;;6.80;99.90;;;;;;5022064;28;20639;-71
2021/11/27 15:24:06;;;;;;;10.47;6.07;;;6.70;99.90;;;;;;5018508;28;20608;-70
2021/11/27 15:26:34;;;;;;;8.07;5.13;;;6.80;99.90;;;;;;5022417;28;21053;-69
2021/11/27 15:29:06;;;;;;;9.83;6.00;;;6.70;99.90;;;;;;5021690;28;20217;-68
2021/11/27 15:31:35;;;;;;;12.33;6.30;;;6.80;99.90;;;;;;5024734;28;20230;-70